createdAt,value
2023-04-29T00:00:08.791Z,18.02
2023-04-29T00:05:05.806Z,17.33
2023-04-29T00:10:02.421Z,17.42
2023-04-29T00:14:59.707Z,18.52
2023-04-29T00:19:56.116Z,18.83
2023-04-29T00:24:53.182Z,19.23
2023-04-29T00:29:49.592Z,19.70
2023-04-29T00:34:46.173Z,20.15
2023-04-29T00:39:42.560Z,21.05
2023-04-29T00:44:38.941Z,20.27
2023-04-29T00:49:35.447Z,21.67
2023-04-29T00:54:32.070Z,22.42
2023-04-29T00:59:32.203Z,22.10
2023-04-29T01:04:28.771Z,23.02
2023-04-29T01:10:00.456Z,23.15
2023-04-29T01:15:12.572Z,27.67
2023-04-29T01:20:10.346Z,28.10
2023-04-29T01:25:07.260Z,29.27
2023-04-29T01:30:12.606Z,30.00
2023-04-29T01:35:25.075Z,28.25
2023-04-29T01:40:34.047Z,30.88
2023-04-29T01:45:34.032Z,30.48
2023-04-29T01:50:30.418Z,28.15
2023-04-29T01:55:26.855Z,29.60
2023-04-29T02:00:23.277Z,28.83
2023-04-29T02:05:19.665Z,26.58
2023-04-29T02:10:16.329Z,30.38
2023-04-29T02:15:12.715Z,31.23
2023-04-29T02:20:10.775Z,29.27
2023-04-29T02:25:07.529Z,31.70
2023-04-29T02:30:04.887Z,26.58
2023-04-29T02:35:01.303Z,27.60
2023-04-29T02:39:57.684Z,25.52
2023-04-29T02:44:54.058Z,25.95
2023-04-29T02:49:50.679Z,23.77
2023-04-29T02:54:47.354Z,25.13
2023-04-29T02:59:44.327Z,27.48
2023-04-29T03:04:40.870Z,26.33
2023-04-29T03:09:37.275Z,28.88
2023-04-29T03:14:33.670Z,27.85
2023-04-29T03:19:30.180Z,28.35
2023-04-29T03:24:27.183Z,28.25
2023-04-29T03:29:23.617Z,30.48
2023-04-29T03:34:20.748Z,30.25
2023-04-29T03:39:18.045Z,29.90
2023-04-29T03:44:14.665Z,29.52
2023-04-29T03:49:11.042Z,29.55
2023-04-29T03:54:08.404Z,28.55
2023-04-29T03:59:04.820Z,29.40
2023-04-29T04:04:01.677Z,31.48
2023-04-29T04:08:58.400Z,33.40
2023-04-29T04:13:54.968Z,34.58
2023-04-29T04:18:51.341Z,30.90
2023-04-29T04:23:47.740Z,33.03
2023-04-29T04:28:44.120Z,32.83
2023-04-29T04:33:43.474Z,33.25
2023-04-29T04:38:39.920Z,34.55
2023-04-29T04:43:36.345Z,35.72
2023-04-29T04:48:32.726Z,33.35
2023-04-29T04:53:29.139Z,38.20
2023-04-29T04:58:26.666Z,36.75
2023-04-29T05:03:23.260Z,40.38
2023-04-29T05:08:20.320Z,39.65
2023-04-29T05:13:16.753Z,39.08
2023-04-29T05:18:13.271Z,37.33
2023-04-29T05:23:10.164Z,36.50
2023-04-29T05:28:07.688Z,33.20
2023-04-29T05:33:04.110Z,34.55
2023-04-29T05:38:00.657Z,33.28
2023-04-29T05:42:57.026Z,29.58
2023-04-29T05:47:53.452Z,31.25
2023-04-29T05:52:49.997Z,29.48
2023-04-29T05:57:46.462Z,30.23
2023-04-29T06:02:51.005Z,30.42
2023-04-29T06:07:51.962Z,29.25
2023-04-29T06:12:51.535Z,27.50
2023-04-29T06:17:48.746Z,27.83
2023-04-29T06:22:45.235Z,27.95
2023-04-29T06:27:41.731Z,28.70
2023-04-29T06:32:39.370Z,28.83
2023-04-29T06:37:37.721Z,29.87
2023-04-29T06:42:34.703Z,29.73
2023-04-29T06:47:31.231Z,30.38
2023-04-29T06:52:27.701Z,29.13
2023-04-29T06:57:24.210Z,30.92
2023-04-29T07:02:20.749Z,30.38
2023-04-29T07:07:17.211Z,29.95
2023-04-29T07:12:13.650Z,31.55
2023-04-29T07:17:12.047Z,30.70
2023-04-29T07:22:10.376Z,29.23
2023-04-29T07:27:06.959Z,28.50
2023-04-29T07:32:03.821Z,28.40
2023-04-29T07:37:01.233Z,28.98
2023-04-29T07:41:57.815Z,25.98
2023-04-29T07:46:54.310Z,27.10
2023-04-29T07:51:50.772Z,25.27
2023-04-29T07:56:47.369Z,22.73
2023-04-29T08:01:44.215Z,22.08
2023-04-29T08:06:41.786Z,21.05
2023-04-29T08:11:39.947Z,22.30
2023-04-29T08:16:36.544Z,20.50
2023-04-29T08:21:33.582Z,20.67
2023-04-29T08:26:30.439Z,20.02
2023-04-29T08:31:27.504Z,20.65
2023-04-29T08:36:24.213Z,22.17
2023-04-29T08:41:20.647Z,22.13
2023-04-29T08:46:18.516Z,21.98
2023-04-29T08:51:15.096Z,21.08
2023-04-29T08:56:23.158Z,20.50
2023-04-29T09:01:20.645Z,20.40
2023-04-29T09:06:17.846Z,21.35
2023-04-29T09:11:14.650Z,17.88
2023-04-29T09:16:12.774Z,18.20
2023-04-29T09:21:22.017Z,18.40
2023-04-29T09:26:19.957Z,17.45
2023-04-29T09:31:28.067Z,16.27
2023-04-29T09:36:47.766Z,15.02
2023-04-29T09:41:53.083Z,15.90
2023-04-29T09:47:09.399Z,15.25
2023-04-29T09:52:11.078Z,13.15
2023-04-29T09:57:09.358Z,14.68
2023-04-29T10:02:17.791Z,13.75
2023-04-29T10:07:20.095Z,13.18
2023-04-29T10:12:18.921Z,12.27
2023-04-29T10:17:26.256Z,10.80
2023-04-29T10:22:33.683Z,11.20
2023-04-29T10:27:34.199Z,11.37
2023-04-29T10:32:39.945Z,12.38
2023-04-29T10:37:48.552Z,9.30
2023-04-29T10:42:45.855Z,10.20
2023-04-29T10:47:42.542Z,10.27
2023-04-29T10:52:52.498Z,10.20
2023-04-29T10:57:49.308Z,9.25
2023-04-29T11:02:45.814Z,10.43
2023-04-29T11:07:44.391Z,11.25
2023-04-29T11:12:40.992Z,10.65
2023-04-29T11:17:38.468Z,11.70
2023-04-29T11:22:35.381Z,10.52
2023-04-29T11:27:36.345Z,10.35
2023-04-29T11:32:35.349Z,9.90
2023-04-29T11:37:32.724Z,11.10
2023-04-29T11:42:29.425Z,9.07
2023-04-29T11:47:27.513Z,9.88
2023-04-29T11:52:23.934Z,10.73
2023-04-29T11:57:20.371Z,10.05
2023-04-29T12:02:17.051Z,10.23
2023-04-29T12:07:17.449Z,9.07
2023-04-29T12:12:14.800Z,8.80
2023-04-29T12:17:11.938Z,8.43
2023-04-29T12:22:08.512Z,7.45
2023-04-29T12:27:08.549Z,7.32
2023-04-29T12:32:05.124Z,7.50
2023-04-29T12:37:02.087Z,8.05
2023-04-29T12:41:59.488Z,8.15
2023-04-29T12:46:58.382Z,6.70
2023-04-29T12:51:55.179Z,7.28
2023-04-29T12:56:52.201Z,7.45
2023-04-29T13:01:48.844Z,6.75
2023-04-29T13:06:45.392Z,7.25
2023-04-29T13:11:42.247Z,7.70
2023-04-29T13:16:38.825Z,7.13
2023-04-29T13:21:35.320Z,7.00
2023-04-29T13:26:32.242Z,7.43
2023-04-29T13:31:29.053Z,7.22
2023-04-29T13:36:28.588Z,6.82
2023-04-29T13:41:26.521Z,7.00
2023-04-29T13:46:23.058Z,6.80
2023-04-29T14:02:00.468Z,4.85
2023-04-29T14:06:35.230Z,5.13
2023-04-29T14:11:36.395Z,6.05
2023-04-29T14:16:33.282Z,4.70
2023-04-29T14:21:30.054Z,5.43
2023-04-29T14:26:28.380Z,5.05
2023-04-29T14:31:38.440Z,5.40
2023-04-29T14:36:35.043Z,5.70
2023-04-29T14:41:31.556Z,5.53
2023-04-29T14:46:29.110Z,4.57
2023-04-29T14:51:25.730Z,4.38
2023-04-29T14:56:22.305Z,5.10
2023-04-29T15:01:18.770Z,4.40
2023-04-29T15:06:15.408Z,4.90
2023-04-29T15:11:11.818Z,3.20
2023-04-29T15:16:08.890Z,3.80
2023-04-29T15:21:05.555Z,3.50
2023-04-29T15:26:02.045Z,3.17
2023-04-29T15:30:59.915Z,2.75
2023-04-29T15:35:56.889Z,3.30
2023-04-29T15:40:59.164Z,3.33
2023-04-29T15:45:56.110Z,2.90
2023-04-29T15:50:53.544Z,3.30
2023-04-29T15:55:50.190Z,2.97
2023-04-29T16:00:47.213Z,3.60
2023-04-29T16:05:43.682Z,3.70
2023-04-29T16:10:40.197Z,3.38
2023-04-29T16:15:36.750Z,3.85
2023-04-29T16:20:33.383Z,3.10
2023-04-29T16:25:29.771Z,3.60
2023-04-29T16:30:26.157Z,4.07
2023-04-29T16:35:26.312Z,3.92
2023-04-29T16:40:24.052Z,3.85
2023-04-29T16:45:23.630Z,3.50
2023-04-29T16:50:20.420Z,3.92
2023-04-29T16:55:16.957Z,3.15
2023-04-29T17:00:13.965Z,2.70
2023-04-29T17:05:10.922Z,4.40
2023-04-29T17:10:08.253Z,4.07
2023-04-29T17:15:05.961Z,2.95
2023-04-29T17:20:02.526Z,3.95
2023-04-29T17:24:58.992Z,3.80
2023-04-29T17:29:55.866Z,3.63
2023-04-29T17:34:53.296Z,3.50
2023-04-29T17:39:49.770Z,3.22
2023-04-29T17:44:46.614Z,3.58
2023-04-29T17:49:43.816Z,3.30
2023-04-29T17:54:41.146Z,3.80
2023-04-29T17:59:37.534Z,3.83
2023-04-29T18:04:34.022Z,3.30
2023-04-29T18:09:30.558Z,3.42
2023-04-29T18:14:29.055Z,3.33
2023-04-29T18:19:25.792Z,2.97
2023-04-29T18:24:22.526Z,3.58
2023-04-29T18:29:18.930Z,3.47
2023-04-29T18:34:15.865Z,3.42
2023-04-29T18:39:12.288Z,3.40
2023-04-29T18:44:08.772Z,4.32
2023-04-29T18:49:05.201Z,5.50
2023-04-29T18:54:01.616Z,5.65
2023-04-29T18:58:58.064Z,3.75
2023-04-29T19:03:55.318Z,4.15
2023-04-29T19:08:51.735Z,4.25
2023-04-29T19:13:48.136Z,3.80
2023-04-29T19:18:45.518Z,3.70
2023-04-29T19:23:42.153Z,4.25
2023-04-29T19:28:38.594Z,3.47
2023-04-29T19:33:35.279Z,6.65
2023-04-29T19:38:31.699Z,6.05
2023-04-29T19:43:28.475Z,3.65
2023-04-29T19:48:25.010Z,4.32
2023-04-29T19:53:21.602Z,4.88
2023-04-29T19:58:18.214Z,4.40
2023-04-29T20:03:14.764Z,4.35
2023-04-29T20:08:11.227Z,4.05
2023-04-29T20:13:07.889Z,3.63
2023-04-29T20:18:04.472Z,3.45
2023-04-29T20:23:01.013Z,4.10
2023-04-29T20:27:57.594Z,3.72
2023-04-29T20:32:54.447Z,3.42
2023-04-29T20:37:51.276Z,3.83
2023-04-29T20:42:47.837Z,3.85
2023-04-29T20:47:44.469Z,3.83
2023-04-29T20:52:41.681Z,3.55
2023-04-29T20:57:38.572Z,4.18
2023-04-29T21:02:35.054Z,3.30
2023-04-29T21:07:31.497Z,3.95
2023-04-29T21:12:27.952Z,3.50
2023-04-29T21:17:24.395Z,3.88
2023-04-29T21:22:20.828Z,3.95
2023-04-29T21:27:17.399Z,4.63
2023-04-29T21:32:14.723Z,3.75
2023-04-29T21:37:11.115Z,3.75
2023-04-29T21:42:09.666Z,3.75
2023-04-29T21:52:03.848Z,3.63
2023-04-29T21:57:00.566Z,4.25
2023-04-29T22:02:00.607Z,3.90
2023-04-29T22:06:57.314Z,3.80
2023-04-29T22:11:53.760Z,3.42
2023-04-29T22:16:50.227Z,3.20
2023-04-29T22:21:46.805Z,3.88
2023-04-29T22:26:43.349Z,4.55
2023-04-29T22:31:39.845Z,4.20
2023-04-29T22:36:36.583Z,3.85
2023-04-29T22:41:33.091Z,3.72
2023-04-29T22:46:29.498Z,3.83
2023-04-29T22:51:26.678Z,3.60
2023-04-29T22:56:24.592Z,4.15
2023-04-29T23:01:21.347Z,4.00
2023-04-29T23:06:17.820Z,4.00
2023-04-29T23:11:14.711Z,3.85
2023-04-29T23:16:11.473Z,4.15
2023-04-29T23:21:07.930Z,3.90
2023-04-29T23:26:04.392Z,3.80
2023-04-29T23:31:00.914Z,3.95
2023-04-29T23:35:57.345Z,3.90
2023-04-29T23:40:53.755Z,5.20
2023-04-29T23:45:50.227Z,4.40
2023-04-29T23:50:47.363Z,4.35
2023-04-29T23:55:43.724Z,4.85
